FMMIFMSF

Guest
Details From FMMI - IVATO
To FMSF - FIANARANTSOA
Flight Number -
Tags generated
Created
Modified
Stats Distance 160 nm / 297 km
Max Altitude 0 ft / 0 m
Waypoints 2
Social Downloads 1
Likes 0
Share VATSIM

Download

Looking for another format? Having issues loading an existing format? Contact us
Advertisement - Login to hide

Notes

Basic altitude profile: - Ascent Rate: 2500ft/min - Ascent Speed: 250kts - Cruise Altitude: 12000ft - Cruise Speed: 250kts - Descent Rate: 1500ft/min - Descent Speed: 250kts Options: - Use NATs: yes - Use PACOTS: yes - Use low airways: yes - Use high airways: yes

Route

FMMI FMSF

ID Type Via Altitude Latitude Longitude Leg Dist Tot Dist Heading (true) Name
O FMMI APT - 0 ft / 0 m -18.79695˚ 47.47881˚ - 0 nm - IVATO
O FMSF APT - 0 ft / 0 m -21.44156˚ 47.11174˚ 160 nm 160 nm 187° / 187° FIANARANTSOA

Altitude Profile

Advertisement - Login to hide

FMMI

Details ICAO FMMI (TNR)
Name IVATO
Region Comoros, Mayotte, Réunion and Madagascar
Timezone Indian/Antananarivo (UTC+3.0)
Stats Elevation 4,198 ft / 1,280 m (AMSL)
Location -18.796950° 47.478806°
Runways 1
Magnetic Variation 15.172° W

METAR

FMMI 230330Z 16007KT 130V190 9999 BKN020 15/12 Q1026 NOSIG

Decode

TAF

TAF FMMI 222300Z 2300/2406 15008KT 9999 FEW007 BKN020= TAF FMEE 222300Z 2300/2406 14012KT 9999 SCT026 PROB30 TEMPO 2300/2306 4500 SHRA BECMG 2305/2306 12020G30KT BECMG 2313/2315 14014KT

Decode

Departure Runways

ID Width Length Bearing (true) Bearing (mag) Surface Threshold Offset Overrun Length
11 148 ft / 45 m 10,167 ft / 3,099 m 98.92° 114.09° Asphalt 0 ft / 0 m 90 ft / 27 m
29 148 ft / 45 m 10,167 ft / 3,099 m 278.91° 294.08° Asphalt 0 ft / 0 m 90 ft / 27 m

FMSF

Details ICAO FMSF (WFI)
Name FIANARANTSOA
Region Comoros, Mayotte, Réunion and Madagascar
Timezone Indian/Antananarivo (UTC+3.0)
Stats Elevation 3,658 ft / 1,115 m (AMSL)
Location -21.441558° 47.111736°
Runways 1
Magnetic Variation 18.580° W

METAR

Not found

TAF

Not found

Destination Runways

ID Width Length Bearing (true) Bearing (mag) Surface Threshold Offset Overrun Length
08 82 ft / 25 m 4,090 ft / 1,247 m 61.78° 80.36° Asphalt 0 ft / 0 m 0 ft / 0 m
26 82 ft / 25 m 4,090 ft / 1,247 m 241.78° 260.36° Asphalt 0 ft / 0 m 0 ft / 0 m

Popular Alternatives